createdAt,value
2018-07-26T00:00:32.879Z,8.27
2018-07-26T00:03:03.365Z,9.00
2018-07-26T00:05:30.491Z,9.20
2018-07-26T00:07:57.495Z,9.40
2018-07-26T00:10:25.392Z,9.63
2018-07-26T00:12:52.413Z,10.20
2018-07-26T00:15:19.424Z,9.17
2018-07-26T00:17:46.475Z,9.30
2018-07-26T00:20:13.487Z,9.00
2018-07-26T00:22:41.635Z,7.90
2018-07-26T00:25:14.850Z,8.97
2018-07-26T00:27:45.823Z,8.10
2018-07-26T00:30:12.866Z,8.00
2018-07-26T00:32:42.010Z,8.40
2018-07-26T00:35:12.135Z,8.23
2018-07-26T00:37:43.879Z,9.53
2018-07-26T00:40:11.883Z,8.55
2018-07-26T00:42:39.019Z,9.13
2018-07-26T00:45:09.316Z,9.00
2018-07-26T00:47:36.452Z,9.00
2018-07-26T00:50:03.604Z,8.60
2018-07-26T00:52:31.313Z,8.40
2018-07-26T00:55:03.371Z,8.33
2018-07-26T00:57:32.319Z,9.20
2018-07-26T01:00:04.547Z,8.20
2018-07-26T01:02:31.577Z,8.33
2018-07-26T01:04:59.698Z,9.33
2018-07-26T01:07:27.767Z,8.33
2018-07-26T01:09:55.871Z,8.80
2018-07-26T01:12:23.044Z,9.80
2018-07-26T01:14:51.852Z,8.70
2018-07-26T01:17:18.973Z,9.30
2018-07-26T01:19:46.102Z,9.53
2018-07-26T01:22:14.172Z,10.50
2018-07-26T01:24:41.220Z,10.50
2018-07-26T01:27:08.287Z,9.17
2018-07-26T01:29:36.313Z,8.67
2018-07-26T01:32:06.943Z,9.27
2018-07-26T01:34:37.042Z,8.90
2018-07-26T01:37:05.846Z,9.33
2018-07-26T01:39:34.056Z,8.50
2018-07-26T01:42:02.887Z,8.07
2018-07-26T01:44:29.938Z,7.73
2018-07-26T01:46:57.031Z,7.50
2018-07-26T01:49:25.221Z,7.20
2018-07-26T01:51:56.375Z,6.45
2018-07-26T01:54:23.488Z,7.07
2018-07-26T01:56:51.388Z,6.20
2018-07-26T01:59:18.578Z,8.20
2018-07-26T02:01:45.762Z,6.80
2018-07-26T02:04:14.411Z,7.03
2018-07-26T02:06:41.478Z,6.97
2018-07-26T02:09:18.439Z,7.12
2018-07-26T02:11:53.053Z,6.67
2018-07-26T02:14:26.711Z,5.90
2018-07-26T02:17:09.659Z,6.47
2018-07-26T02:19:36.687Z,6.93
2018-07-26T02:22:03.795Z,6.20
2018-07-26T02:24:30.862Z,6.20
2018-07-26T02:27:01.616Z,7.00
2018-07-26T02:29:31.723Z,6.40
2018-07-26T02:32:01.801Z,6.27
2018-07-26T02:34:28.857Z,6.47
2018-07-26T02:36:55.949Z,7.43
2018-07-26T02:39:22.969Z,6.70
2018-07-26T02:41:50.923Z,6.83
2018-07-26T02:44:17.983Z,7.30
2018-07-26T02:46:49.099Z,6.57
2018-07-26T02:49:16.911Z,7.17
2018-07-26T02:51:44.964Z,6.93
2018-07-26T02:54:14.174Z,6.60
2018-07-26T02:56:44.907Z,7.53
2018-07-26T02:59:12.124Z,6.40
2018-07-26T03:01:43.869Z,6.50
2018-07-26T03:04:10.938Z,7.72
2018-07-26T03:06:38.018Z,7.00
2018-07-26T03:09:12.390Z,6.60
2018-07-26T03:11:42.504Z,6.75
2018-07-26T03:14:22.851Z,6.50
2018-07-26T03:16:49.945Z,7.57
2018-07-26T03:19:17.031Z,8.10
2018-07-26T03:21:44.111Z,7.90
2018-07-26T03:24:14.824Z,8.57
2018-07-26T03:26:41.835Z,8.37
2018-07-26T03:29:08.900Z,7.47
2018-07-26T03:31:36.178Z,8.23
2018-07-26T03:34:03.296Z,8.07
2018-07-26T03:36:30.460Z,8.20
2018-07-26T03:38:58.446Z,7.20
2018-07-26T03:41:29.108Z,8.30
2018-07-26T03:43:56.932Z,7.50
2018-07-26T03:46:25.203Z,7.60
2018-07-26T03:48:52.891Z,7.90
2018-07-26T03:51:22.016Z,8.90
2018-07-26T03:53:49.080Z,7.60
2018-07-26T03:56:17.990Z,6.90
2018-07-26T03:58:45.068Z,6.27
2018-07-26T04:01:12.122Z,7.27
2018-07-26T04:03:39.273Z,7.37
2018-07-26T04:06:06.421Z,7.00
2018-07-26T04:08:35.557Z,6.60
2018-07-26T04:11:03.516Z,6.57
2018-07-26T04:13:35.047Z,7.50
2018-07-26T04:16:02.086Z,7.40
2018-07-26T04:18:29.108Z,6.73
2018-07-26T04:20:57.274Z,6.83
2018-07-26T04:26:08.929Z,5.97
2018-07-26T04:28:36.580Z,6.50
2018-07-26T04:31:03.892Z,6.17
2018-07-26T04:33:34.517Z,5.60
2018-07-26T04:36:05.699Z,5.60
2018-07-26T04:38:33.784Z,5.27
2018-07-26T04:41:03.931Z,4.60
2018-07-26T04:43:30.981Z,4.90
2018-07-26T04:45:59.053Z,5.00
2018-07-26T04:48:27.015Z,5.20
2018-07-26T04:50:54.126Z,4.93
2018-07-26T04:53:23.006Z,4.10
2018-07-26T04:55:58.073Z,4.60
2018-07-26T04:58:25.465Z,4.60
2018-07-26T05:00:54.134Z,4.70
2018-07-26T05:03:21.185Z,3.80
2018-07-26T05:05:48.328Z,4.30
2018-07-26T05:08:19.278Z,4.73
2018-07-26T05:10:51.294Z,4.85
2018-07-26T05:13:18.409Z,4.50
2018-07-26T05:15:54.733Z,4.20
2018-07-26T05:18:23.495Z,4.67
2018-07-26T05:20:52.596Z,5.30
2018-07-26T05:23:23.143Z,4.90
2018-07-26T05:25:50.470Z,4.47
2018-07-26T05:28:21.061Z,4.50
2018-07-26T05:30:48.148Z,4.60
2018-07-26T05:33:15.318Z,4.58
2018-07-26T05:35:48.590Z,4.63
2018-07-26T05:38:19.101Z,4.70
2018-07-26T05:40:46.296Z,4.50
2018-07-26T05:43:21.090Z,4.70
2018-07-26T05:45:51.137Z,3.70
2018-07-26T05:48:18.180Z,4.20
2018-07-26T05:50:47.157Z,6.10
2018-07-26T05:53:17.200Z,5.00
2018-07-26T05:55:45.044Z,3.97
2018-07-26T05:58:14.048Z,4.20
2018-07-26T06:00:47.439Z,4.30
2018-07-26T06:03:22.028Z,4.10
2018-07-26T06:05:53.443Z,4.03
2018-07-26T06:08:23.549Z,3.67
2018-07-26T06:10:54.215Z,4.60
2018-07-26T06:13:22.105Z,3.63
2018-07-26T06:15:51.030Z,3.97
2018-07-26T06:18:23.393Z,4.60
2018-07-26T06:20:50.494Z,3.75
2018-07-26T06:23:17.573Z,3.87
2018-07-26T06:25:47.607Z,4.20
2018-07-26T06:28:15.687Z,4.07
2018-07-26T06:30:47.545Z,4.30
2018-07-26T06:33:16.499Z,4.10
2018-07-26T06:35:44.494Z,3.67
2018-07-26T06:38:11.721Z,3.70
2018-07-26T06:40:41.844Z,3.47
2018-07-26T06:43:09.037Z,3.80
2018-07-26T06:45:37.261Z,3.90
2018-07-26T06:48:05.113Z,3.80
2018-07-26T06:50:32.193Z,4.73
2018-07-26T06:52:59.413Z,3.70
2018-07-26T06:55:26.469Z,4.70
2018-07-26T06:57:54.269Z,3.80
2018-07-26T07:00:21.400Z,3.40
2018-07-26T07:02:48.636Z,3.60
2018-07-26T07:05:15.729Z,3.40
2018-07-26T07:07:42.827Z,3.70
2018-07-26T07:10:10.618Z,3.47
2018-07-26T07:12:43.925Z,3.40
2018-07-26T07:15:11.526Z,3.87
2018-07-26T07:17:40.594Z,4.13
2018-07-26T07:20:08.313Z,3.40
2018-07-26T07:22:41.440Z,3.60
2018-07-26T07:25:09.137Z,3.60
2018-07-26T07:27:36.205Z,4.20
2018-07-26T07:30:08.492Z,4.00
2018-07-26T07:32:35.538Z,4.23
2018-07-26T07:35:03.714Z,3.80
2018-07-26T07:37:30.953Z,4.37
2018-07-26T07:39:58.722Z,3.93
2018-07-26T07:42:26.633Z,3.67
2018-07-26T07:44:56.775Z,3.67
2018-07-26T07:47:25.600Z,3.90
2018-07-26T07:49:52.705Z,4.20
2018-07-26T07:52:20.854Z,3.98
2018-07-26T07:54:48.647Z,3.77
2018-07-26T07:57:16.636Z,4.00
2018-07-26T07:59:43.793Z,3.50
2018-07-26T08:02:11.663Z,3.83
2018-07-26T08:04:38.903Z,4.23
2018-07-26T08:07:06.012Z,4.10
2018-07-26T08:09:33.987Z,4.20
2018-07-26T08:12:01.683Z,4.30
2018-07-26T08:14:32.456Z,3.60
2018-07-26T08:16:59.493Z,4.50
2018-07-26T08:19:29.605Z,3.90
2018-07-26T08:21:56.685Z,4.10
2018-07-26T08:24:24.654Z,3.40
2018-07-26T08:26:52.276Z,3.85
2018-07-26T08:29:26.677Z,3.50
2018-07-26T08:31:54.751Z,3.77
2018-07-26T08:34:22.541Z,3.50
2018-07-26T08:36:49.652Z,3.43
2018-07-26T08:39:25.495Z,4.13
2018-07-26T08:41:53.721Z,3.83
2018-07-26T08:44:20.901Z,4.13
2018-07-26T08:46:48.036Z,3.60
2018-07-26T08:49:15.189Z,3.53
2018-07-26T08:51:43.100Z,3.60
2018-07-26T08:54:11.291Z,3.50
2018-07-26T08:56:38.404Z,4.58
2018-07-26T08:59:08.490Z,3.47
2018-07-26T09:01:35.616Z,3.70
2018-07-26T09:04:02.767Z,3.07
2018-07-26T09:06:30.655Z,3.17
2018-07-26T09:08:58.700Z,3.00
2018-07-26T09:11:25.761Z,3.63
2018-07-26T09:13:52.836Z,3.40
2018-07-26T09:16:19.889Z,3.53
2018-07-26T09:18:50.540Z,2.87
2018-07-26T09:21:17.721Z,3.10
2018-07-26T09:23:45.661Z,3.35
2018-07-26T09:26:12.804Z,3.63
2018-07-26T09:28:39.839Z,3.30
2018-07-26T09:31:06.933Z,3.63
2018-07-26T09:33:37.920Z,3.20
2018-07-26T09:36:11.628Z,3.10
2018-07-26T09:38:38.775Z,3.37
2018-07-26T09:41:12.534Z,3.27
2018-07-26T09:43:40.271Z,3.43
2018-07-26T09:46:10.517Z,3.42
2018-07-26T09:48:40.701Z,3.43
2018-07-26T09:51:07.788Z,2.83
2018-07-26T09:53:34.892Z,3.30
2018-07-26T09:56:02.032Z,3.10
2018-07-26T09:58:29.176Z,3.00
2018-07-26T10:01:03.946Z,3.17
2018-07-26T10:03:31.045Z,3.12
2018-07-26T10:05:58.820Z,2.67
2018-07-26T10:08:25.967Z,2.73
2018-07-26T10:10:53.157Z,3.03
2018-07-26T10:13:20.463Z,3.10
2018-07-26T10:15:47.639Z,3.37
2018-07-26T10:18:14.819Z,2.77
2018-07-26T10:20:49.673Z,2.33
2018-07-26T10:23:17.781Z,2.50
2018-07-26T10:25:44.892Z,2.37
2018-07-26T10:28:12.106Z,2.50
2018-07-26T10:30:44.576Z,2.70
2018-07-26T10:33:14.746Z,2.77
2018-07-26T10:35:41.801Z,2.70
2018-07-26T10:38:08.917Z,2.60
2018-07-26T10:40:36.067Z,2.37
2018-07-26T10:43:03.126Z,2.50
2018-07-26T10:45:30.236Z,2.37
2018-07-26T10:47:57.372Z,2.70
2018-07-26T10:50:24.456Z,2.20
2018-07-26T10:52:51.626Z,2.20
2018-07-26T10:55:18.859Z,2.07
2018-07-26T10:57:45.957Z,1.70
2018-07-26T11:00:13.125Z,1.60
2018-07-26T11:02:40.346Z,1.90
2018-07-26T11:05:08.752Z,2.10
2018-07-26T11:07:36.139Z,2.23
2018-07-26T11:10:04.731Z,1.70
2018-07-26T11:12:32.948Z,2.00
2018-07-26T11:15:07.077Z,2.20
2018-07-26T11:17:34.759Z,2.30
2018-07-26T11:20:01.987Z,2.10
2018-07-26T11:22:32.098Z,2.10
2018-07-26T11:25:00.296Z,2.07
2018-07-26T11:27:27.566Z,1.70
2018-07-26T11:29:55.310Z,1.73
2018-07-26T11:32:22.553Z,1.90
2018-07-26T11:34:50.856Z,2.27
2018-07-26T11:37:19.874Z,2.20
2018-07-26T11:39:47.008Z,1.50
2018-07-26T11:42:15.295Z,2.73
2018-07-26T11:44:43.195Z,1.90
2018-07-26T11:47:11.415Z,1.82
2018-07-26T11:49:40.506Z,2.12
2018-07-26T11:52:07.638Z,1.85
2018-07-26T11:54:36.336Z,1.97
2018-07-26T11:57:04.424Z,1.85
2018-07-26T11:59:35.323Z,2.10
2018-07-26T12:02:02.484Z,2.00
2018-07-26T12:06:44.833Z,1.80
2018-07-26T12:09:12.843Z,1.83
2018-07-26T12:11:40.354Z,1.73
2018-07-26T12:14:16.354Z,2.10
2018-07-26T12:16:44.271Z,1.53
2018-07-26T12:19:11.359Z,1.90
2018-07-26T12:21:42.848Z,1.30
2018-07-26T12:24:15.371Z,1.60
2018-07-26T12:26:43.428Z,2.13
2018-07-26T12:29:11.456Z,1.90
2018-07-26T12:31:38.760Z,1.70
2018-07-26T12:34:07.941Z,1.50
2018-07-26T12:36:41.244Z,1.70
2018-07-26T12:39:09.633Z,1.80
2018-07-26T12:41:37.089Z,1.80
2018-07-26T12:44:04.228Z,1.67
2018-07-26T12:46:31.428Z,1.53
2018-07-26T12:48:58.591Z,1.70
2018-07-26T12:51:25.906Z,1.90
2018-07-26T12:53:53.966Z,1.77
2018-07-26T12:56:21.209Z,1.60
2018-07-26T12:58:50.206Z,2.07
2018-07-26T13:01:17.883Z,1.50
2018-07-26T13:03:45.088Z,1.50
2018-07-26T13:06:12.323Z,1.60
2018-07-26T13:08:39.420Z,1.50
2018-07-26T13:11:06.520Z,1.60
2018-07-26T13:13:35.367Z,1.70
2018-07-26T13:16:03.382Z,1.77
2018-07-26T13:18:31.365Z,2.00
2018-07-26T13:20:58.601Z,1.73
2018-07-26T13:23:27.444Z,1.80
2018-07-26T13:25:55.316Z,2.00
2018-07-26T13:28:22.417Z,1.80
2018-07-26T13:30:49.586Z,1.80
2018-07-26T13:33:16.751Z,1.77
2018-07-26T13:35:44.892Z,1.60
2018-07-26T13:38:13.075Z,2.00
2018-07-26T13:40:41.848Z,1.70
2018-07-26T13:43:09.176Z,1.70
2018-07-26T13:45:36.306Z,1.45
2018-07-26T13:48:03.376Z,1.60
2018-07-26T13:50:30.503Z,1.77
2018-07-26T13:52:57.673Z,1.63
2018-07-26T13:55:24.965Z,1.73
2018-07-26T13:57:52.119Z,1.50
2018-07-26T14:00:21.041Z,1.80
2018-07-26T14:02:48.990Z,1.83
2018-07-26T14:05:18.008Z,1.47
2018-07-26T14:07:47.180Z,1.40
2018-07-26T14:10:20.314Z,1.90
2018-07-26T14:12:47.424Z,1.67
2018-07-26T14:15:14.622Z,1.60
2018-07-26T14:17:41.847Z,1.40
2018-07-26T14:20:10.267Z,1.80
2018-07-26T14:22:37.552Z,1.77
2018-07-26T14:25:05.143Z,1.77
2018-07-26T14:27:32.227Z,1.60
2018-07-26T14:30:00.386Z,1.67
2018-07-26T14:32:27.504Z,1.40
2018-07-26T14:34:54.660Z,1.67
2018-07-26T14:37:23.527Z,1.60
2018-07-26T14:39:50.763Z,1.37
2018-07-26T14:42:18.450Z,1.93
2018-07-26T14:44:46.875Z,1.63
2018-07-26T14:47:15.077Z,1.50
2018-07-26T14:49:42.281Z,1.77
2018-07-26T14:52:10.269Z,2.00
2018-07-26T14:54:43.609Z,1.30
2018-07-26T14:57:12.594Z,1.50
2018-07-26T14:59:45.527Z,1.60
2018-07-26T15:02:15.828Z,1.33
2018-07-26T15:04:43.082Z,1.40
2018-07-26T15:07:10.992Z,1.20
2018-07-26T15:09:38.183Z,1.53
2018-07-26T15:12:05.620Z,1.50
2018-07-26T15:14:32.719Z,1.40
2018-07-26T15:17:01.412Z,1.20
2018-07-26T15:19:28.528Z,1.50
2018-07-26T15:21:56.750Z,1.50
2018-07-26T15:24:25.732Z,1.70
2018-07-26T15:26:52.800Z,1.50
2018-07-26T15:29:20.475Z,1.47
2018-07-26T15:31:48.592Z,1.40
2018-07-26T15:34:20.480Z,1.40
2018-07-26T15:36:50.546Z,1.30
2018-07-26T15:39:17.637Z,1.63
2018-07-26T15:41:45.053Z,1.27
2018-07-26T15:44:13.334Z,1.40
2018-07-26T15:46:40.482Z,1.67
2018-07-26T15:49:07.763Z,1.50
2018-07-26T15:51:50.158Z,1.30
2018-07-26T15:54:20.310Z,1.27
2018-07-26T15:56:47.565Z,1.23
2018-07-26T15:59:14.620Z,1.82
2018-07-26T16:01:41.713Z,1.67
2018-07-26T16:04:08.933Z,1.60
2018-07-26T16:06:42.329Z,1.50
2018-07-26T16:09:10.325Z,1.70
2018-07-26T16:11:38.740Z,1.67
2018-07-26T16:14:07.104Z,1.60
2018-07-26T16:16:34.298Z,1.67
2018-07-26T16:19:01.756Z,1.40
2018-07-26T16:21:28.885Z,1.70
2018-07-26T16:23:57.081Z,1.50
2018-07-26T16:26:27.293Z,2.00
2018-07-26T16:28:56.435Z,1.50
2018-07-26T16:31:24.620Z,1.37
2018-07-26T16:33:51.714Z,1.30
2018-07-26T16:36:18.963Z,1.40
2018-07-26T16:38:49.118Z,1.30
2018-07-26T16:41:16.918Z,1.50
2018-07-26T16:43:46.851Z,1.80
2018-07-26T16:46:24.539Z,1.43
2018-07-26T16:48:52.668Z,1.42
2018-07-26T16:51:20.629Z,1.55
2018-07-26T16:53:49.554Z,1.40
2018-07-26T16:56:17.876Z,1.55
2018-07-26T16:58:44.870Z,1.57
2018-07-26T17:01:12.923Z,1.50
2018-07-26T17:03:43.542Z,1.52
2018-07-26T17:06:12.896Z,1.50
2018-07-26T17:08:43.703Z,1.57
2018-07-26T17:11:10.859Z,1.80
2018-07-26T17:13:38.892Z,1.70
2018-07-26T17:16:06.794Z,1.30
2018-07-26T17:18:35.318Z,1.50
2018-07-26T17:21:03.245Z,1.40
2018-07-26T17:23:31.266Z,1.60
2018-07-26T17:25:58.879Z,1.73
2018-07-26T17:28:26.539Z,2.10
2018-07-26T17:30:55.616Z,1.60
2018-07-26T17:33:23.401Z,1.87
2018-07-26T17:35:50.515Z,1.80
2018-07-26T17:38:18.445Z,1.63
2018-07-26T17:40:45.844Z,1.80
2018-07-26T17:43:12.968Z,1.63
2018-07-26T17:45:40.189Z,1.70
2018-07-26T17:48:07.295Z,2.13
2018-07-26T17:50:37.588Z,1.83
2018-07-26T17:53:07.834Z,1.67
2018-07-26T17:55:34.919Z,1.60
2018-07-26T17:58:05.337Z,1.80
2018-07-26T18:00:32.608Z,1.70
2018-07-26T18:03:01.428Z,1.70
2018-07-26T18:05:29.091Z,1.60
2018-07-26T18:07:59.763Z,1.90
2018-07-26T18:10:26.937Z,1.80
2018-07-26T18:13:01.524Z,1.77
2018-07-26T18:15:29.711Z,1.87
2018-07-26T18:17:57.459Z,1.70
2018-07-26T18:20:24.552Z,2.00
2018-07-26T18:22:52.028Z,1.70
2018-07-26T18:25:20.226Z,1.53
2018-07-26T18:27:48.060Z,2.20
2018-07-26T18:30:15.390Z,2.40
2018-07-26T18:32:42.509Z,2.10
2018-07-26T18:35:12.389Z,2.20
2018-07-26T18:37:39.461Z,2.10
2018-07-26T18:40:06.875Z,1.90
2018-07-26T18:42:38.087Z,1.97
2018-07-26T18:45:07.205Z,2.13
2018-07-26T18:47:35.612Z,2.27
2018-07-26T18:50:02.934Z,2.40
2018-07-26T18:52:30.066Z,2.30
2018-07-26T18:54:58.232Z,2.60
2018-07-26T18:57:25.505Z,2.77
2018-07-26T18:59:52.711Z,2.67
2018-07-26T19:02:19.830Z,2.65
2018-07-26T19:04:46.928Z,2.43
2018-07-26T19:07:14.125Z,2.67
2018-07-26T19:09:41.281Z,2.83
2018-07-26T19:12:09.494Z,2.90
2018-07-26T19:14:37.705Z,2.20
2018-07-26T19:17:08.646Z,2.60
2018-07-26T19:19:41.883Z,2.73
2018-07-26T19:22:09.132Z,2.30
2018-07-26T19:24:37.414Z,2.70
2018-07-26T19:27:04.634Z,3.13
2018-07-26T19:29:31.896Z,2.70
2018-07-26T19:31:59.201Z,2.90
2018-07-26T19:34:29.370Z,2.93
2018-07-26T19:36:56.631Z,2.97
2018-07-26T19:39:23.883Z,2.90
2018-07-26T19:41:51.196Z,2.40
2018-07-26T19:44:18.685Z,2.80
2018-07-26T19:46:45.950Z,2.60
2018-07-26T19:49:13.116Z,2.57
2018-07-26T19:51:40.297Z,2.87
2018-07-26T19:54:07.548Z,3.00
2018-07-26T19:56:34.768Z,2.62
2018-07-26T19:59:02.208Z,2.73
2018-07-26T20:01:29.267Z,3.30
2018-07-26T20:03:56.579Z,2.58
2018-07-26T20:06:23.591Z,2.90
2018-07-26T20:08:50.725Z,2.70
2018-07-26T20:11:18.798Z,5.03
2018-07-26T20:13:46.591Z,3.10
2018-07-26T20:16:14.152Z,3.00
2018-07-26T20:18:43.072Z,3.37
2018-07-26T20:21:11.180Z,3.45
2018-07-26T20:23:38.404Z,3.20
2018-07-26T20:26:06.526Z,3.70
2018-07-26T20:28:37.364Z,2.70
2018-07-26T20:31:04.681Z,3.70
2018-07-26T20:33:31.734Z,4.10
2018-07-26T20:35:59.851Z,3.57
2018-07-26T20:38:27.275Z,3.40
2018-07-26T20:40:54.554Z,3.50
2018-07-26T20:43:21.867Z,3.53
2018-07-26T20:45:49.057Z,2.77
2018-07-26T20:48:17.216Z,3.33
2018-07-26T20:50:45.314Z,3.03
2018-07-26T20:53:12.591Z,3.30
2018-07-26T20:55:40.191Z,3.73
2018-07-26T20:58:07.299Z,3.75
2018-07-26T21:00:34.466Z,3.70
2018-07-26T21:03:01.542Z,4.60
2018-07-26T21:05:29.616Z,3.60
2018-07-26T21:07:57.658Z,3.70
2018-07-26T21:10:31.204Z,3.70
2018-07-26T21:12:58.356Z,3.77
2018-07-26T21:15:28.298Z,3.93
2018-07-26T21:17:58.446Z,4.50
2018-07-26T21:20:26.507Z,3.77
2018-07-26T21:22:58.649Z,4.90
2018-07-26T21:25:26.633Z,4.40
2018-07-26T21:27:55.602Z,3.47
2018-07-26T21:30:22.744Z,3.87
2018-07-26T21:32:49.857Z,4.00
2018-07-26T21:35:17.030Z,4.05
2018-07-26T21:37:47.216Z,4.40
2018-07-26T21:40:14.396Z,4.37
2018-07-26T21:42:42.320Z,4.30
2018-07-26T21:45:10.508Z,3.90
2018-07-26T21:47:37.660Z,4.40
2018-07-26T21:50:05.731Z,4.12
2018-07-26T21:52:32.796Z,4.10
2018-07-26T21:54:59.879Z,4.00
2018-07-26T21:57:27.159Z,4.00
2018-07-26T21:59:55.209Z,4.40
2018-07-26T22:02:22.367Z,3.73
2018-07-26T22:04:49.697Z,4.70
2018-07-26T22:07:16.760Z,4.35
2018-07-26T22:09:49.655Z,4.47
2018-07-26T22:12:16.724Z,3.97
2018-07-26T22:14:48.980Z,3.87
2018-07-26T22:17:16.185Z,4.13
2018-07-26T22:19:43.294Z,4.60
2018-07-26T22:22:10.421Z,4.30
2018-07-26T22:24:39.121Z,4.00
2018-07-26T22:27:09.258Z,4.50
2018-07-26T22:29:36.402Z,4.27
2018-07-26T22:32:03.611Z,3.60
2018-07-26T22:34:30.701Z,4.20
2018-07-26T22:36:57.827Z,4.30
2018-07-26T22:39:25.741Z,4.35
2018-07-26T22:41:53.847Z,4.40
2018-07-26T22:44:22.653Z,3.80
2018-07-26T22:46:49.843Z,4.70
2018-07-26T22:49:17.692Z,4.13
2018-07-26T22:51:45.639Z,3.90
2018-07-26T22:54:12.782Z,4.33
2018-07-26T22:56:39.876Z,4.83
2018-07-26T22:59:07.827Z,4.30
2018-07-26T23:01:34.889Z,5.00
2018-07-26T23:04:03.124Z,5.30
2018-07-26T23:06:31.292Z,5.40
2018-07-26T23:09:01.255Z,4.70
2018-07-26T23:11:40.163Z,5.00
2018-07-26T23:14:09.221Z,4.97
2018-07-26T23:16:43.558Z,4.53
2018-07-26T23:19:12.154Z,5.00
2018-07-26T23:21:45.498Z,4.73
2018-07-26T23:24:13.154Z,4.73
2018-07-26T23:26:42.297Z,4.55
2018-07-26T23:29:10.170Z,4.50
2018-07-26T23:31:37.345Z,4.50
2018-07-26T23:34:04.488Z,5.17
2018-07-26T23:36:33.336Z,4.78
2018-07-26T23:39:00.456Z,4.43
2018-07-26T23:41:27.601Z,4.60
2018-07-26T23:43:59.860Z,4.40
2018-07-26T23:46:30.774Z,5.00
2018-07-26T23:48:59.664Z,4.70
2018-07-26T23:51:26.756Z,5.10
2018-07-26T23:53:53.848Z,5.20
2018-07-26T23:56:21.907Z,5.20
2018-07-26T23:58:49.699Z,4.37
